createdAt,value
2022-12-20T00:01:53.959Z,-1.90
2022-12-20T00:03:58.955Z,-1.90
2022-12-20T00:06:02.229Z,-1.90
2022-12-20T00:08:06.070Z,-1.90
2022-12-20T00:10:10.315Z,-1.90
2022-12-20T00:12:13.750Z,-2.00
2022-12-20T00:14:17.169Z,-1.90
2022-12-20T00:16:23.435Z,-1.90
2022-12-20T00:18:26.770Z,-1.90
2022-12-20T00:20:30.596Z,-1.90
2022-12-20T00:22:34.140Z,-1.90
2022-12-20T00:24:37.516Z,-1.90
2022-12-20T00:26:40.833Z,-1.90
2022-12-20T00:28:45.661Z,-1.90
2022-12-20T00:30:54.511Z,-1.90
2022-12-20T00:33:02.338Z,-1.90
2022-12-20T00:35:06.955Z,-1.90
2022-12-20T00:37:10.304Z,-1.90
2022-12-20T00:39:14.040Z,-1.90
2022-12-20T00:41:20.462Z,-1.90
2022-12-20T00:43:23.685Z,-1.90
2022-12-20T00:45:26.962Z,-1.90
2022-12-20T00:47:30.147Z,-1.90
2022-12-20T00:49:34.905Z,-1.90
2022-12-20T00:51:38.267Z,-1.90
2022-12-20T00:53:42.330Z,-1.90
2022-12-20T00:55:46.890Z,-2.00
2022-12-20T00:57:50.136Z,-1.90
2022-12-20T00:59:53.740Z,-2.00
2022-12-20T01:01:57.511Z,-2.10
2022-12-20T01:04:01.519Z,-2.00
2022-12-20T01:06:07.181Z,-2.00
2022-12-20T01:08:10.408Z,-2.00
2022-12-20T01:10:14.002Z,-2.00
2022-12-20T01:12:17.749Z,-2.00
2022-12-20T01:14:21.208Z,-2.00
2022-12-20T01:16:27.948Z,-2.00
2022-12-20T01:18:31.627Z,-2.10
2022-12-20T01:20:35.133Z,-2.00
2022-12-20T01:22:45.648Z,-2.10
2022-12-20T01:24:51.255Z,-2.10
2022-12-20T01:26:54.720Z,-2.10
2022-12-20T01:29:00.473Z,-2.10
2022-12-20T01:31:04.122Z,-2.10
2022-12-20T01:33:07.457Z,-2.10
2022-12-20T01:35:11.193Z,-2.10
2022-12-20T01:37:14.765Z,-2.10
2022-12-20T01:39:19.849Z,-2.10
2022-12-20T01:41:24.260Z,-2.10
2022-12-20T01:43:45.676Z,-2.10
2022-12-20T01:45:49.166Z,-2.10
2022-12-20T01:47:52.610Z,-2.10
2022-12-20T01:50:00.294Z,-2.10
2022-12-20T01:52:08.395Z,-2.10
2022-12-20T01:54:16.311Z,-2.10
2022-12-20T01:56:21.448Z,-2.10
2022-12-20T01:58:25.027Z,-2.10
2022-12-20T02:00:29.308Z,-2.00
2022-12-20T02:02:34.807Z,-2.00
2022-12-20T02:04:38.373Z,-2.00
2022-12-20T02:06:42.192Z,-1.90
2022-12-20T02:08:47.718Z,-1.90
2022-12-20T02:11:05.445Z,-1.90
2022-12-20T02:13:17.744Z,-1.90
2022-12-20T02:15:34.107Z,-1.90
2022-12-20T02:17:49.377Z,-1.90
2022-12-20T02:20:21.292Z,-2.00
2022-12-20T02:22:31.143Z,-2.00
2022-12-20T02:25:02.394Z,-2.10
2022-12-20T02:27:31.881Z,-2.10
2022-12-20T02:29:40.573Z,-2.10
2022-12-20T02:31:55.067Z,-2.10
2022-12-20T02:34:00.000Z,-2.10
2022-12-20T02:36:05.294Z,-2.10
2022-12-20T02:38:28.729Z,-2.10
2022-12-20T02:40:39.145Z,-2.20
2022-12-20T02:42:43.119Z,-2.10
2022-12-20T02:45:09.036Z,-2.10
2022-12-20T02:47:18.883Z,-2.10
2022-12-20T02:49:27.105Z,-2.10
2022-12-20T02:51:33.480Z,-2.20
2022-12-20T02:53:38.379Z,-2.10
2022-12-20T02:55:47.611Z,-2.20
2022-12-20T02:58:00.562Z,-2.20
2022-12-20T03:00:08.317Z,-2.10
2022-12-20T03:02:14.322Z,-2.10
2022-12-20T03:04:19.591Z,-2.10
2022-12-20T03:06:23.183Z,-2.10
2022-12-20T03:08:27.289Z,-2.00
2022-12-20T03:10:31.016Z,-2.10
2022-12-20T03:12:34.719Z,-2.10
2022-12-20T03:14:38.050Z,-2.10
2022-12-20T03:16:41.331Z,-2.10
2022-12-20T03:18:46.474Z,-2.10
2022-12-20T03:20:50.439Z,-2.00
2022-12-20T03:22:52.814Z,-2.10
2022-12-20T03:24:56.487Z,-2.00
2022-12-20T03:26:59.831Z,-2.00
2022-12-20T03:29:03.499Z,-2.10
2022-12-20T03:31:07.329Z,-2.10
2022-12-20T03:33:10.851Z,-2.10
2022-12-20T03:35:15.701Z,-2.10
2022-12-20T03:37:19.512Z,-2.10
2022-12-20T03:39:23.041Z,-2.10
2022-12-20T03:41:27.128Z,-2.10
2022-12-20T03:43:30.800Z,-2.10
2022-12-20T03:45:34.112Z,-2.10
2022-12-20T03:47:37.791Z,-2.10
2022-12-20T03:49:41.363Z,-2.10
2022-12-20T03:51:46.179Z,-2.10
2022-12-20T03:53:49.733Z,-2.10
2022-12-20T03:55:53.428Z,-2.10
2022-12-20T03:57:57.026Z,-2.10
2022-12-20T04:00:00.321Z,-2.10
2022-12-20T04:02:04.173Z,-2.10
2022-12-20T04:04:09.600Z,-2.10
2022-12-20T04:06:12.921Z,-2.10
2022-12-20T04:08:17.866Z,-2.10
2022-12-20T04:10:21.465Z,-2.10
2022-12-20T04:12:25.021Z,-2.10
2022-12-20T04:14:28.536Z,-2.10
2022-12-20T04:16:32.731Z,-2.10
2022-12-20T04:18:36.146Z,-2.10
2022-12-20T04:20:39.696Z,-2.10
2022-12-20T04:22:43.239Z,-2.10
2022-12-20T04:24:47.971Z,-2.10
2022-12-20T04:26:51.759Z,-2.00
2022-12-20T04:28:55.061Z,-2.00
2022-12-20T04:30:58.380Z,-2.00
2022-12-20T04:33:01.965Z,-2.10
2022-12-20T04:35:06.408Z,-2.10
2022-12-20T04:37:09.958Z,-2.10
2022-12-20T04:39:13.257Z,-2.10
2022-12-20T04:41:23.702Z,-2.00
2022-12-20T04:43:27.408Z,-2.00
2022-12-20T04:45:30.891Z,-2.00
2022-12-20T04:47:34.415Z,-2.10
2022-12-20T04:49:38.287Z,-2.10
2022-12-20T04:51:41.860Z,-2.00
2022-12-20T04:53:50.092Z,-2.00
2022-12-20T04:55:53.415Z,-2.00
2022-12-20T04:58:06.993Z,-2.00
2022-12-20T05:00:11.842Z,-2.10
2022-12-20T05:02:15.224Z,-2.00
2022-12-20T05:04:18.768Z,-2.00
2022-12-20T05:06:22.390Z,-2.10
2022-12-20T05:08:25.851Z,-2.10
2022-12-20T05:10:29.328Z,-2.00
2022-12-20T05:12:32.719Z,-2.00
2022-12-20T05:14:40.606Z,-2.00
2022-12-20T05:16:44.356Z,-2.00
2022-12-20T05:18:49.553Z,-2.10
2022-12-20T05:21:15.919Z,-2.20
2022-12-20T05:23:36.771Z,-2.20
2022-12-20T05:25:58.092Z,-2.20
2022-12-20T05:28:01.713Z,-2.20
2022-12-20T05:30:07.871Z,-2.30
2022-12-20T05:32:11.135Z,-2.20
2022-12-20T05:34:14.730Z,-2.20
2022-12-20T05:36:18.358Z,-2.20
2022-12-20T05:38:22.137Z,-2.20
2022-12-20T05:40:25.727Z,-2.20
2022-12-20T05:42:29.730Z,-2.20
2022-12-20T05:44:33.331Z,-2.20
2022-12-20T05:46:38.026Z,-2.20
2022-12-20T05:48:41.922Z,-2.20
2022-12-20T05:50:46.095Z,-2.20
2022-12-20T05:52:49.416Z,-2.10
2022-12-20T05:54:52.716Z,-2.20
2022-12-20T05:56:56.289Z,-2.20
2022-12-20T05:59:00.026Z,-2.20
2022-12-20T06:01:04.295Z,-2.30
2022-12-20T06:03:10.460Z,-2.20
2022-12-20T06:05:13.915Z,-2.20
2022-12-20T06:07:18.865Z,-2.20
2022-12-20T06:09:22.272Z,-2.20
2022-12-20T06:11:29.874Z,-2.20
2022-12-20T06:13:33.793Z,-2.20
2022-12-20T06:15:38.230Z,-2.20
2022-12-20T06:17:41.569Z,-2.20
2022-12-20T06:19:46.200Z,-2.20
2022-12-20T06:21:49.784Z,-2.20
2022-12-20T06:23:53.311Z,-2.20
2022-12-20T06:25:58.073Z,-2.20
2022-12-20T06:28:01.692Z,-2.20
2022-12-20T06:30:06.810Z,-2.20
2022-12-20T06:32:10.412Z,-2.20
2022-12-20T06:34:13.962Z,-2.20
2022-12-20T06:36:18.686Z,-2.20
2022-12-20T06:38:22.329Z,-2.20
2022-12-20T06:40:26.053Z,-2.20
2022-12-20T06:42:29.680Z,-2.20
2022-12-20T06:44:33.235Z,-2.20
2022-12-20T06:46:37.053Z,-2.20
2022-12-20T06:48:40.723Z,-2.20
2022-12-20T06:50:44.109Z,-2.20
2022-12-20T06:52:48.971Z,-2.20
2022-12-20T06:54:52.275Z,-2.20
2022-12-20T06:56:55.532Z,-2.00
2022-12-20T06:58:59.085Z,-2.00
2022-12-20T07:01:02.658Z,-2.10
2022-12-20T07:03:06.222Z,-2.00
2022-12-20T07:05:10.362Z,-2.00
2022-12-20T07:07:14.325Z,-2.00
2022-12-20T07:09:21.036Z,-2.00
2022-12-20T07:11:24.551Z,-2.00
2022-12-20T07:13:29.669Z,-2.00
2022-12-20T07:15:33.133Z,-2.00
2022-12-20T07:17:36.526Z,-2.00
2022-12-20T07:19:45.647Z,-2.00
2022-12-20T07:21:52.236Z,-2.00
2022-12-20T07:23:57.107Z,-1.90
2022-12-20T07:26:04.118Z,-2.00
2022-12-20T07:28:07.508Z,-1.90
2022-12-20T07:30:11.216Z,-1.90
2022-12-20T07:32:14.919Z,-1.90
2022-12-20T07:34:19.003Z,-1.80
2022-12-20T07:36:22.674Z,-1.80
2022-12-20T07:38:26.470Z,-1.80
2022-12-20T07:40:30.031Z,-1.70
2022-12-20T07:42:39.177Z,-1.80
2022-12-20T07:44:44.822Z,-1.70
2022-12-20T07:46:48.620Z,-1.80
2022-12-20T07:48:52.000Z,-1.90
2022-12-20T07:50:59.490Z,-1.80
2022-12-20T07:53:03.705Z,-1.80
2022-12-20T07:55:09.334Z,-1.80
2022-12-20T07:57:16.651Z,-1.70
2022-12-20T07:59:24.937Z,-1.80
2022-12-20T08:01:28.991Z,-1.70
2022-12-20T08:03:35.193Z,-1.70
2022-12-20T08:05:42.808Z,-1.70
2022-12-20T08:07:51.124Z,-1.70
2022-12-20T08:09:59.059Z,-1.70
2022-12-20T08:12:02.589Z,-1.70
2022-12-20T08:14:08.438Z,-1.70
2022-12-20T08:16:16.487Z,-1.70
2022-12-20T08:18:19.836Z,-1.70
2022-12-20T08:20:23.129Z,-1.80
2022-12-20T08:22:26.798Z,-1.70
2022-12-20T08:24:30.051Z,-1.80
2022-12-20T08:26:37.926Z,-1.80
2022-12-20T08:28:42.249Z,-1.60
2022-12-20T08:30:45.810Z,-1.50
2022-12-20T08:32:50.400Z,-1.50
2022-12-20T08:34:53.854Z,-1.60
2022-12-20T08:36:57.298Z,-1.60
2022-12-20T08:39:03.184Z,-1.70
2022-12-20T08:41:08.194Z,-1.70
2022-12-20T08:43:11.621Z,-1.70
2022-12-20T08:45:15.393Z,-1.60
2022-12-20T08:47:19.317Z,-1.70
2022-12-20T08:49:23.990Z,-1.70
2022-12-20T08:51:27.827Z,-1.60
2022-12-20T08:53:32.478Z,-1.70
2022-12-20T08:55:35.839Z,-1.60
2022-12-20T08:57:39.230Z,-1.60
2022-12-20T08:59:43.034Z,-1.60
2022-12-20T09:01:48.347Z,-1.60
2022-12-20T09:03:52.147Z,-1.60
2022-12-20T09:05:57.034Z,-1.60
2022-12-20T09:08:00.363Z,-1.60
2022-12-20T09:10:03.835Z,-1.60
2022-12-20T09:12:07.822Z,-1.50
2022-12-20T09:14:11.420Z,-1.70
2022-12-20T09:16:17.625Z,-1.60
2022-12-20T09:18:21.004Z,-1.50
2022-12-20T09:20:25.662Z,-1.60
2022-12-20T09:22:31.714Z,-1.50
2022-12-20T09:24:35.174Z,-1.50
2022-12-20T09:26:40.890Z,-1.50
2022-12-20T09:28:44.740Z,-1.50
2022-12-20T09:30:48.387Z,-1.50
2022-12-20T09:32:51.746Z,-1.40
2022-12-20T09:34:55.251Z,-1.50
2022-12-20T09:36:58.715Z,-1.40
2022-12-20T09:39:03.423Z,-1.40
2022-12-20T09:41:10.096Z,-1.40
2022-12-20T09:43:14.345Z,-1.30
2022-12-20T09:45:26.001Z,-1.20
2022-12-20T09:47:29.731Z,-1.30
2022-12-20T09:49:37.399Z,-1.30
2022-12-20T09:52:02.510Z,-1.30
2022-12-20T09:54:19.941Z,-1.20
2022-12-20T09:56:28.968Z,-1.20
2022-12-20T09:58:43.812Z,-1.30
2022-12-20T10:00:53.799Z,-1.20
2022-12-20T10:03:06.461Z,-1.30
2022-12-20T10:05:17.163Z,-1.30
2022-12-20T10:07:41.031Z,-1.30
2022-12-20T11:17:30.819Z,-1.10
2022-12-20T11:20:08.283Z,-1.10
2022-12-20T11:22:24.551Z,-1.10
2022-12-20T11:24:36.839Z,-1.10
2022-12-20T11:26:59.845Z,-1.10
2022-12-20T11:29:25.037Z,-1.10
2022-12-20T11:31:41.437Z,-1.00
2022-12-20T11:34:01.311Z,-1.00
2022-12-20T11:36:07.729Z,-1.00
2022-12-20T11:38:41.982Z,-1.00
2022-12-20T11:40:53.300Z,-1.10
2022-12-20T11:43:11.403Z,-1.00
2022-12-20T11:45:25.094Z,-0.90
2022-12-20T11:47:57.659Z,-1.00
2022-12-20T11:50:14.774Z,-0.90
2022-12-20T11:52:33.621Z,-1.00
2022-12-20T11:54:42.447Z,-1.00
2022-12-20T11:56:48.399Z,-1.00
2022-12-20T11:58:57.532Z,-1.00
2022-12-20T12:01:06.441Z,-1.00
2022-12-20T12:03:15.270Z,-1.00
2022-12-20T12:05:24.977Z,-1.00
2022-12-20T12:07:35.514Z,-1.00
2022-12-20T12:09:42.266Z,-1.00
2022-12-20T12:12:08.771Z,-1.10
2022-12-20T12:14:22.601Z,-1.00
2022-12-20T12:16:32.982Z,-1.00
2022-12-20T12:18:37.702Z,-1.00
2022-12-20T12:20:52.505Z,-1.00
2022-12-20T12:23:03.518Z,-1.10
2022-12-20T12:25:14.767Z,-1.00
2022-12-20T12:27:24.910Z,-1.00
2022-12-20T12:29:31.786Z,-0.90
2022-12-20T12:31:40.752Z,-1.00
2022-12-20T12:33:49.058Z,-1.00
2022-12-20T12:36:20.327Z,-1.10
2022-12-20T12:38:43.694Z,-1.10
2022-12-20T12:41:10.665Z,-1.00
2022-12-20T12:43:51.500Z,-1.00
2022-12-20T12:46:00.740Z,-1.30
2022-12-20T13:34:38.558Z,-1.50
2022-12-20T13:36:42.218Z,-1.60
2022-12-20T13:38:59.263Z,-1.60
2022-12-20T13:41:10.792Z,-1.70
2022-12-20T13:43:25.219Z,-1.60
2022-12-20T13:45:28.946Z,-1.60
2022-12-20T13:47:43.382Z,-1.70
2022-12-20T13:49:48.377Z,-1.70
2022-12-20T13:52:13.547Z,-1.60
2022-12-20T13:54:26.956Z,-1.50
2022-12-20T14:19:08.097Z,-1.60
2022-12-20T14:21:12.049Z,-1.60
2022-12-20T14:23:18.504Z,-1.60
2022-12-20T14:25:30.341Z,-1.60
2022-12-20T14:27:38.629Z,-1.70
2022-12-20T14:29:43.221Z,-1.70
2022-12-20T14:31:48.379Z,-1.80
2022-12-20T14:33:52.220Z,-1.80
2022-12-20T14:35:56.887Z,-1.70
2022-12-20T14:38:04.493Z,-1.80
2022-12-20T14:40:19.839Z,-1.70
2022-12-20T14:42:23.393Z,-1.70
2022-12-20T14:44:30.192Z,-1.70
2022-12-20T14:46:34.329Z,-1.70
2022-12-20T14:48:37.855Z,-1.60
2022-12-20T14:50:42.063Z,-1.70
2022-12-20T14:52:47.673Z,-1.70
2022-12-20T14:55:10.545Z,-1.70
2022-12-20T14:57:24.725Z,-1.80
2022-12-20T14:59:31.884Z,-1.80
2022-12-20T15:01:41.724Z,-1.70
2022-12-20T15:03:55.888Z,-1.70
2022-12-20T15:06:00.307Z,-1.70
2022-12-20T15:08:13.920Z,-1.70
2022-12-20T15:10:17.621Z,-1.80
2022-12-20T15:12:20.965Z,-1.90
2022-12-20T15:14:36.800Z,-1.90
2022-12-20T15:16:48.441Z,-1.80
2022-12-20T15:18:53.516Z,-1.80
2022-12-20T15:21:04.822Z,-1.80
2022-12-20T15:23:16.198Z,-1.80
2022-12-20T15:25:19.893Z,-1.80
2022-12-20T15:27:24.790Z,-1.80
2022-12-20T15:29:29.639Z,-1.80
2022-12-20T15:31:36.613Z,-1.80
2022-12-20T15:33:41.499Z,-1.90
2022-12-20T15:35:46.139Z,-1.80
2022-12-20T16:00:18.764Z,-1.80
2022-12-20T16:02:24.754Z,-1.80
2022-12-20T16:04:30.021Z,-1.80
2022-12-20T16:06:33.752Z,-1.80
2022-12-20T16:08:37.557Z,-1.80
2022-12-20T16:10:41.149Z,-1.80
2022-12-20T16:12:44.787Z,-1.80
2022-12-20T16:14:48.362Z,-1.80
2022-12-20T16:16:53.377Z,-1.80
2022-12-20T16:18:58.310Z,-1.80
2022-12-20T16:21:01.708Z,-1.80
2022-12-20T16:23:05.191Z,-1.80
2022-12-20T16:25:19.977Z,-1.80
2022-12-20T16:27:23.752Z,-1.80
2022-12-20T16:29:27.346Z,-1.80
2022-12-20T16:31:32.663Z,-1.90
2022-12-20T16:33:37.709Z,-1.90
2022-12-20T16:35:41.032Z,-1.90
2022-12-20T16:37:44.300Z,-1.90
2022-12-20T16:39:48.754Z,-1.80
2022-12-20T16:41:52.209Z,-1.80
2022-12-20T16:43:57.129Z,-1.80
2022-12-20T16:46:00.424Z,-1.80
2022-12-20T16:48:04.165Z,-1.80
2022-12-20T16:50:10.581Z,-1.90
2022-12-20T16:52:19.349Z,-1.90
2022-12-20T16:54:24.437Z,-1.90
2022-12-20T16:56:28.860Z,-1.90
2022-12-20T16:59:00.007Z,-1.90
2022-12-20T17:00:55.727Z,-1.80
2022-12-20T17:02:59.309Z,-1.80
2022-12-20T17:05:03.196Z,-1.80
2022-12-20T17:07:08.065Z,-1.80
2022-12-20T17:11:33.763Z,-1.80
2022-12-20T17:13:37.146Z,-1.80
2022-12-20T17:15:40.651Z,-1.80
2022-12-20T17:17:44.048Z,-1.80
2022-12-20T17:19:47.548Z,-1.90
2022-12-20T17:24:20.105Z,-1.80
2022-12-20T17:26:25.593Z,-1.80
2022-12-20T17:28:29.039Z,-1.90
2022-12-20T17:30:32.357Z,-1.90
2022-12-20T17:32:35.755Z,-1.80
2022-12-20T17:34:39.153Z,-1.80
2022-12-20T17:36:42.543Z,-1.80
2022-12-20T17:38:50.462Z,-1.80
2022-12-20T17:40:57.107Z,-1.80
2022-12-20T17:43:00.550Z,-1.80
2022-12-20T17:45:04.088Z,-1.80
2022-12-20T17:47:07.621Z,-1.80
2022-12-20T17:49:11.007Z,-1.80
2022-12-20T17:51:20.531Z,-1.70
2022-12-20T17:53:24.230Z,-1.80
2022-12-20T17:55:31.029Z,-1.80
2022-12-20T17:57:35.730Z,-1.70
2022-12-20T17:59:39.031Z,-1.80
2022-12-20T18:01:43.368Z,-1.80
2022-12-20T18:04:03.693Z,-1.80
2022-12-20T18:06:09.580Z,-1.80
2022-12-20T18:08:12.793Z,-1.80
2022-12-20T18:10:16.404Z,-1.80
2022-12-20T18:12:20.051Z,-1.90
2022-12-20T18:14:24.834Z,-1.90
2022-12-20T18:16:30.498Z,-1.90
2022-12-20T18:18:37.077Z,-1.90
2022-12-20T18:20:40.542Z,-1.80
2022-12-20T18:22:43.907Z,-1.80
2022-12-20T18:24:47.202Z,-1.80
2022-12-20T18:26:50.538Z,-1.80
2022-12-20T18:28:56.106Z,-1.80
2022-12-20T18:31:02.549Z,-1.80
2022-12-20T18:33:05.957Z,-1.80
2022-12-20T18:35:11.011Z,-1.80
2022-12-20T18:37:14.932Z,-1.90
2022-12-20T18:39:18.441Z,-1.80
2022-12-20T18:41:24.176Z,-1.90
2022-12-20T18:43:28.249Z,-1.90
2022-12-20T18:45:31.715Z,-1.90
2022-12-20T18:47:38.438Z,-1.90
2022-12-20T18:49:41.787Z,-1.90
2022-12-20T18:51:45.151Z,-1.90
2022-12-20T18:53:49.895Z,-1.90
2022-12-20T18:55:53.165Z,-1.90
2022-12-20T18:57:56.427Z,-1.90
2022-12-20T18:59:59.664Z,-1.90
2022-12-20T19:02:06.312Z,-1.90
2022-12-20T19:04:11.749Z,-1.90
2022-12-20T19:06:15.893Z,-1.90
2022-12-20T19:08:20.074Z,-2.00
2022-12-20T19:10:23.455Z,-2.00
2022-12-20T19:12:27.286Z,-1.90
2022-12-20T19:14:30.890Z,-2.00
2022-12-20T19:16:35.628Z,-1.90
2022-12-20T19:18:39.524Z,-1.90
2022-12-20T19:20:44.447Z,-1.90
2022-12-20T19:22:47.814Z,-1.90
2022-12-20T19:24:51.577Z,-1.90
2022-12-20T19:26:54.963Z,-1.90
2022-12-20T19:28:59.081Z,-1.90
2022-12-20T19:31:07.698Z,-1.90
2022-12-20T19:33:11.086Z,-1.90
2022-12-20T19:37:42.133Z,-1.90
2022-12-20T19:39:45.433Z,-1.90
2022-12-20T19:44:12.957Z,-2.00
2022-12-20T19:46:16.763Z,-1.90
2022-12-20T19:48:20.193Z,-1.90
2022-12-20T19:50:23.520Z,-1.90
2022-12-20T19:52:29.037Z,-1.90
2022-12-20T19:54:33.986Z,-1.90
2022-12-20T19:56:37.660Z,-1.90
2022-12-20T19:58:41.601Z,-1.90
2022-12-20T20:00:48.860Z,-1.90
2022-12-20T20:02:52.382Z,-1.90
2022-12-20T20:04:55.835Z,-1.90
2022-12-20T20:06:59.287Z,-1.90
2022-12-20T20:09:02.689Z,-1.80
2022-12-20T20:11:10.075Z,-1.80
2022-12-20T20:13:14.049Z,-1.80
2022-12-20T20:15:17.496Z,-1.80
2022-12-20T20:17:20.999Z,-1.80
2022-12-20T20:19:24.349Z,-1.90
2022-12-20T20:21:28.047Z,-1.80
2022-12-20T20:23:31.626Z,-1.80
2022-12-20T20:25:35.544Z,-1.80
2022-12-20T20:27:40.424Z,-1.80
2022-12-20T20:29:43.789Z,-1.90
2022-12-20T20:31:47.316Z,-1.90
2022-12-20T20:33:51.299Z,-1.90
2022-12-20T20:35:59.291Z,-1.90
2022-12-20T20:38:02.827Z,-1.80
2022-12-20T20:40:07.343Z,-1.90
2022-12-20T20:42:10.863Z,-1.90
2022-12-20T20:44:16.061Z,-1.80
2022-12-20T20:46:19.732Z,-1.90
2022-12-20T20:48:23.464Z,-1.90
2022-12-20T20:50:26.840Z,-1.90
2022-12-20T20:52:30.225Z,-1.80
2022-12-20T20:54:33.544Z,-1.80
2022-12-20T20:56:40.442Z,-1.80
2022-12-20T20:58:44.302Z,-1.80
2022-12-20T21:00:51.982Z,-1.80
2022-12-20T21:02:55.575Z,-1.90
2022-12-20T21:05:52.528Z,-1.90
2022-12-20T21:07:22.408Z,-1.90
2022-12-20T21:09:25.730Z,-1.80
2022-12-20T21:11:31.114Z,-1.80
2022-12-20T21:13:34.594Z,-1.80
2022-12-20T21:15:39.238Z,-1.90
2022-12-20T21:17:44.593Z,-1.90
2022-12-20T21:19:48.276Z,-1.80
2022-12-20T21:21:51.695Z,-1.80
2022-12-20T21:23:56.078Z,-1.80
2022-12-20T21:25:59.993Z,-1.80
2022-12-20T21:28:03.386Z,-1.80
2022-12-20T21:30:08.233Z,-1.80
2022-12-20T21:32:11.646Z,-1.80
2022-12-20T21:34:16.708Z,-1.80
2022-12-20T21:36:21.557Z,-1.80
2022-12-20T21:38:24.980Z,-1.80
2022-12-20T21:40:28.493Z,-1.80
2022-12-20T21:42:33.067Z,-1.80
2022-12-20T21:44:36.797Z,-1.90
2022-12-20T21:46:40.471Z,-1.80
2022-12-20T21:48:45.665Z,-1.80
2022-12-20T21:50:59.797Z,-1.90
2022-12-20T21:53:03.362Z,-1.90
2022-12-20T21:55:07.477Z,-1.90
2022-12-20T21:57:11.316Z,-2.00
2022-12-20T21:59:15.008Z,-2.00
2022-12-20T22:01:21.971Z,-1.90
2022-12-20T22:03:26.503Z,-1.90
2022-12-20T22:05:29.860Z,-1.80
2022-12-20T22:07:34.764Z,-1.90
2022-12-20T22:09:38.280Z,-1.90
2022-12-20T22:11:41.956Z,-1.90
2022-12-20T22:13:45.984Z,-1.80
2022-12-20T22:15:49.307Z,-1.80
2022-12-20T22:17:52.773Z,-1.80
2022-12-20T22:19:57.919Z,-1.80
2022-12-20T22:22:01.202Z,-1.80
2022-12-20T22:24:06.439Z,-1.80
2022-12-20T22:26:13.245Z,-1.80
2022-12-20T22:28:16.536Z,-1.80
2022-12-20T22:30:20.055Z,-1.80
2022-12-20T22:32:23.370Z,-1.80
2022-12-20T22:34:26.810Z,-1.80
2022-12-20T22:36:30.573Z,-1.80
2022-12-20T22:38:34.588Z,-1.80
2022-12-20T22:40:39.460Z,-1.90
2022-12-20T22:42:43.256Z,-1.90
2022-12-20T22:44:46.596Z,-1.90
2022-12-20T22:46:50.024Z,-1.80
2022-12-20T22:48:53.393Z,-1.90
2022-12-20T22:51:00.419Z,-1.90
2022-12-20T22:53:04.388Z,-1.90
2022-12-20T22:55:09.525Z,-1.90
2022-12-20T22:57:14.941Z,-1.80
2022-12-20T22:59:18.334Z,-1.80
2022-12-20T23:01:22.279Z,-1.80
2022-12-20T23:03:26.227Z,-1.80
2022-12-20T23:05:30.047Z,-1.70
2022-12-20T23:07:33.463Z,-1.80
2022-12-20T23:09:36.834Z,-1.80
2022-12-20T23:11:57.768Z,-1.80
2022-12-20T23:14:20.489Z,-1.80
2022-12-20T23:16:24.724Z,-1.90
2022-12-20T23:18:28.401Z,-1.80
2022-12-20T23:20:49.173Z,-1.80
2022-12-20T23:22:52.504Z,-1.80
2022-12-20T23:24:55.821Z,-1.90
2022-12-20T23:26:59.414Z,-1.80
2022-12-20T23:29:05.262Z,-1.80
2022-12-20T23:31:09.820Z,-1.80
2022-12-20T23:33:13.241Z,-1.80
2022-12-20T23:35:19.411Z,-1.90
2022-12-20T23:37:22.703Z,-1.90
2022-12-20T23:39:26.078Z,-1.90
2022-12-20T23:41:29.677Z,-1.90
2022-12-20T23:43:33.041Z,-1.90
2022-12-20T23:45:37.892Z,-1.90
2022-12-20T23:47:41.210Z,-1.90
2022-12-20T23:49:44.693Z,-1.90
2022-12-20T23:51:47.899Z,-1.80
2022-12-20T23:53:52.466Z,-1.90
2022-12-20T23:56:01.559Z,-1.90
2022-12-20T23:58:05.083Z,-1.90
